createdAt,value
2017-03-16T00:00:37.237Z,965.91
2017-03-16T00:01:21.961Z,965.84
2017-03-16T00:02:32.235Z,965.78
2017-03-16T00:03:38.971Z,965.81
2017-03-16T00:04:24.267Z,965.76
2017-03-16T00:05:43.360Z,965.77
2017-03-16T00:06:32.559Z,965.77
2017-03-16T00:07:33.397Z,965.77
2017-03-16T00:08:35.971Z,965.76
2017-03-16T00:09:25.682Z,965.71
2017-03-16T00:10:22.162Z,965.72
2017-03-16T00:11:21.693Z,965.72
2017-03-16T00:12:23.199Z,965.72
2017-03-16T00:13:23.426Z,965.72
2017-03-16T00:14:27.384Z,965.74
2017-03-16T00:15:25.167Z,965.74
2017-03-16T00:16:28.553Z,965.71
2017-03-16T00:17:26.104Z,965.73
2017-03-16T00:18:22.226Z,965.73
2017-03-16T00:19:28.474Z,965.70
2017-03-16T00:20:23.216Z,965.71
2017-03-16T00:21:30.557Z,965.70
2017-03-16T00:22:29.622Z,965.66
2017-03-16T00:23:41.661Z,965.69
2017-03-16T00:24:37.205Z,965.66
2017-03-16T00:25:44.954Z,965.69
2017-03-16T00:26:28.112Z,965.68
2017-03-16T00:27:38.464Z,965.67
2017-03-16T00:28:33.712Z,965.64
2017-03-16T00:29:27.744Z,965.62
2017-03-16T00:30:26.198Z,965.59
2017-03-16T00:31:27.742Z,965.59
2017-03-16T00:32:27.545Z,965.51
2017-03-16T00:33:21.322Z,965.52
2017-03-16T00:34:27.650Z,965.51
2017-03-16T00:35:27.983Z,965.55
2017-03-16T00:36:30.851Z,965.58
2017-03-16T00:37:28.013Z,965.59
2017-03-16T00:38:30.752Z,965.53
2017-03-16T00:39:35.071Z,965.50
2017-03-16T00:40:26.778Z,965.52
2017-03-16T00:41:25.767Z,965.50
2017-03-16T00:42:37.908Z,965.49
2017-03-16T00:43:26.191Z,965.51
2017-03-16T00:44:32.485Z,965.52
2017-03-16T00:45:26.514Z,965.48
2017-03-16T00:46:32.725Z,965.48
2017-03-16T00:47:31.850Z,965.46
2017-03-16T00:48:37.057Z,965.48
2017-03-16T00:49:44.169Z,965.41
2017-03-16T00:50:39.057Z,965.39
2017-03-16T00:51:34.791Z,965.40
2017-03-16T00:52:36.600Z,965.33
2017-03-16T00:53:42.854Z,965.39
2017-03-16T00:54:37.734Z,965.40
2017-03-16T00:55:32.118Z,965.38
2017-03-16T00:56:22.600Z,965.41
2017-03-16T00:57:28.001Z,965.36
2017-03-16T00:58:19.338Z,965.38
2017-03-16T00:59:24.766Z,965.35
2017-03-16T01:00:22.324Z,965.40
2017-03-16T01:01:28.678Z,965.37
2017-03-16T01:02:43.844Z,965.34
2017-03-16T01:03:34.331Z,965.34
2017-03-16T01:04:28.129Z,965.35
2017-03-16T01:05:36.905Z,965.36
2017-03-16T01:06:47.089Z,965.36
2017-03-16T01:07:37.342Z,965.32
2017-03-16T01:08:25.860Z,965.38
2017-03-16T01:09:33.117Z,965.35
2017-03-16T01:10:37.850Z,965.38
2017-03-16T01:11:34.180Z,965.37
2017-03-16T01:12:33.368Z,965.36
2017-03-16T01:13:27.743Z,965.33
2017-03-16T01:14:32.509Z,965.36
2017-03-16T01:15:30.830Z,965.33
2017-03-16T01:16:27.839Z,965.33
2017-03-16T01:17:21.938Z,965.31
2017-03-16T01:18:23.274Z,965.30
2017-03-16T01:19:42.768Z,965.30
2017-03-16T01:20:38.697Z,965.27
2017-03-16T01:21:47.321Z,965.26
2017-03-16T01:22:37.369Z,965.21
2017-03-16T01:23:35.182Z,965.19
2017-03-16T01:24:27.437Z,965.18
2017-03-16T01:25:24.554Z,965.17
2017-03-16T01:26:25.425Z,965.17
2017-03-16T01:27:29.074Z,965.14
2017-03-16T01:28:29.840Z,965.14
2017-03-16T01:29:21.912Z,965.14
2017-03-16T01:30:32.578Z,965.12
2017-03-16T01:31:35.761Z,965.09
2017-03-16T01:32:30.919Z,965.14
2017-03-16T01:33:17.956Z,965.11
2017-03-16T01:34:26.973Z,965.08
2017-03-16T01:35:22.699Z,965.07
2017-03-16T01:36:34.158Z,965.04
2017-03-16T01:37:33.068Z,965.03
2017-03-16T01:38:37.652Z,965.00
2017-03-16T01:39:30.967Z,965.01
2017-03-16T01:40:26.647Z,965.00
2017-03-16T01:41:26.678Z,964.99
2017-03-16T01:42:37.456Z,964.95
2017-03-16T01:43:44.492Z,964.94
2017-03-16T01:44:17.898Z,964.99
2017-03-16T01:45:30.333Z,964.93
2017-03-16T01:46:18.051Z,964.95
2017-03-16T01:47:35.160Z,964.92
2017-03-16T01:48:36.089Z,964.89
2017-03-16T01:49:28.006Z,964.90
2017-03-16T01:50:28.117Z,964.86
2017-03-16T01:51:26.690Z,964.84
2017-03-16T01:52:17.765Z,964.79
2017-03-16T01:53:32.686Z,964.82
2017-03-16T01:54:33.507Z,964.76
2017-03-16T01:55:34.297Z,964.79
2017-03-16T01:56:28.979Z,964.80
2017-03-16T01:57:28.073Z,964.78
2017-03-16T01:58:32.649Z,964.79
2017-03-16T01:59:22.541Z,964.76
2017-03-16T02:00:33.605Z,964.75
2017-03-16T02:01:22.424Z,964.77
2017-03-16T02:02:26.975Z,964.81
2017-03-16T02:03:27.948Z,964.77
2017-03-16T02:04:37.434Z,964.74
2017-03-16T02:05:22.492Z,964.77
2017-03-16T02:06:33.382Z,964.76
2017-03-16T02:07:27.446Z,964.81
2017-03-16T02:08:32.111Z,964.80
2017-03-16T02:09:32.568Z,964.76
2017-03-16T02:10:35.534Z,964.77
2017-03-16T02:11:22.330Z,964.78
2017-03-16T02:12:21.518Z,964.78
2017-03-16T02:13:32.915Z,964.76
2017-03-16T02:14:15.588Z,964.71
2017-03-16T02:15:29.733Z,964.70
2017-03-16T02:16:26.054Z,964.68
2017-03-16T02:17:28.825Z,964.67
2017-03-16T02:18:38.030Z,964.61
2017-03-16T02:19:35.725Z,964.60
2017-03-16T02:20:33.025Z,964.62
2017-03-16T02:21:26.807Z,964.65
2017-03-16T02:22:27.905Z,964.60
2017-03-16T02:23:25.798Z,964.59
2017-03-16T02:24:31.265Z,964.62
2017-03-16T02:25:21.348Z,964.63
2017-03-16T02:26:30.013Z,964.64
2017-03-16T02:27:21.815Z,964.64
2017-03-16T02:28:29.724Z,964.64
2017-03-16T02:29:32.134Z,964.69
2017-03-16T02:30:38.619Z,964.70
2017-03-16T02:31:43.457Z,964.68
2017-03-16T02:32:32.028Z,964.74
2017-03-16T02:33:32.410Z,964.70
2017-03-16T02:34:37.605Z,964.71
2017-03-16T02:35:38.915Z,964.74
2017-03-16T02:36:47.012Z,964.70
2017-03-16T02:37:37.817Z,964.68
2017-03-16T02:38:33.321Z,964.66
2017-03-16T02:39:28.987Z,964.63
2017-03-16T02:40:29.012Z,964.70
2017-03-16T02:41:37.091Z,964.69
2017-03-16T02:42:32.650Z,964.70
2017-03-16T02:43:23.357Z,964.67
2017-03-16T02:44:28.101Z,964.68
2017-03-16T02:45:23.524Z,964.67
2017-03-16T02:46:24.634Z,964.68
2017-03-16T02:47:28.021Z,964.66
2017-03-16T02:48:22.089Z,964.59
2017-03-16T02:49:31.888Z,964.55
2017-03-16T02:50:33.627Z,964.63
2017-03-16T02:51:38.510Z,964.62
2017-03-16T02:52:23.348Z,964.61
2017-03-16T02:53:31.954Z,964.62
2017-03-16T02:54:44.374Z,964.56
2017-03-16T02:55:48.759Z,964.49
2017-03-16T02:56:31.310Z,964.56
2017-03-16T02:57:37.684Z,964.50
2017-03-16T02:58:43.819Z,964.48
2017-03-16T02:59:40.298Z,964.48
2017-03-16T03:00:47.454Z,964.47
2017-03-16T03:01:40.152Z,964.47
2017-03-16T03:02:38.271Z,964.47
2017-03-16T03:03:43.187Z,964.44
2017-03-16T03:04:28.048Z,964.44
2017-03-16T03:05:23.853Z,964.44
2017-03-16T03:06:33.793Z,964.46
2017-03-16T03:07:29.194Z,964.47
2017-03-16T03:08:30.434Z,964.46
2017-03-16T03:09:27.569Z,964.47
2017-03-16T03:10:22.822Z,964.42
2017-03-16T03:11:33.180Z,964.40
2017-03-16T03:12:32.799Z,964.38
2017-03-16T03:13:30.049Z,964.33
2017-03-16T03:14:32.628Z,964.36
2017-03-16T03:15:27.919Z,964.37
2017-03-16T03:16:23.114Z,964.38
2017-03-16T03:17:23.429Z,964.35
2017-03-16T03:18:25.478Z,964.32
2017-03-16T03:19:31.188Z,964.31
2017-03-16T03:20:22.939Z,964.27
2017-03-16T03:21:27.671Z,964.30
2017-03-16T03:22:27.262Z,964.29
2017-03-16T03:23:33.509Z,964.28
2017-03-16T03:24:33.641Z,964.23
2017-03-16T03:25:20.927Z,964.21
2017-03-16T03:26:33.175Z,964.25
2017-03-16T03:27:32.414Z,964.24
2017-03-16T03:28:22.479Z,964.25
2017-03-16T03:29:26.792Z,964.23
2017-03-16T03:30:27.390Z,964.24
2017-03-16T03:31:26.615Z,964.20
2017-03-16T03:32:25.990Z,964.19
2017-03-16T03:33:33.939Z,964.16
2017-03-16T03:34:32.880Z,964.20
2017-03-16T03:35:33.207Z,964.16
2017-03-16T03:36:34.217Z,964.12
2017-03-16T03:37:28.903Z,964.12
2017-03-16T03:38:27.181Z,964.13
2017-03-16T03:39:21.103Z,964.09
2017-03-16T03:40:24.875Z,964.11
2017-03-16T03:41:27.599Z,964.09
2017-03-16T03:42:25.866Z,964.12
2017-03-16T03:43:33.269Z,964.08
2017-03-16T03:44:27.662Z,964.11
2017-03-16T03:45:34.695Z,964.12
2017-03-16T03:46:36.742Z,964.11
2017-03-16T03:47:28.768Z,964.10
2017-03-16T03:48:28.839Z,964.13
2017-03-16T03:49:33.556Z,964.12
2017-03-16T03:50:42.887Z,964.13
2017-03-16T03:51:41.700Z,964.14
2017-03-16T03:52:26.774Z,964.12
2017-03-16T03:53:26.582Z,964.12
2017-03-16T03:54:26.200Z,964.12
2017-03-16T03:55:28.212Z,964.11
2017-03-16T03:56:33.136Z,964.09
2017-03-16T03:57:29.124Z,964.05
2017-03-16T03:58:33.734Z,964.05
2017-03-16T03:59:38.157Z,964.03
2017-03-16T04:00:22.529Z,963.99
2017-03-16T04:01:23.854Z,964.04
2017-03-16T04:02:30.238Z,964.04
2017-03-16T04:03:44.948Z,964.08
2017-03-16T04:04:48.651Z,964.02
2017-03-16T04:05:32.260Z,964.01
2017-03-16T04:06:27.046Z,964.01
2017-03-16T04:07:27.968Z,963.97
2017-03-16T04:08:35.169Z,963.95
2017-03-16T04:09:36.660Z,963.90
2017-03-16T04:10:29.550Z,963.95
2017-03-16T04:11:23.715Z,963.97
2017-03-16T04:12:39.493Z,963.98
2017-03-16T04:13:26.926Z,963.96
2017-03-16T04:14:26.058Z,964.02
2017-03-16T04:15:28.564Z,963.96
2017-03-16T04:16:37.192Z,964.00
2017-03-16T04:17:37.177Z,964.02
2017-03-16T04:18:36.164Z,963.99
2017-03-16T04:19:28.695Z,964.01
2017-03-16T04:20:29.317Z,964.02
2017-03-16T04:21:30.654Z,964.02
2017-03-16T04:22:31.779Z,964.04
2017-03-16T04:23:27.687Z,964.01
2017-03-16T04:24:32.913Z,963.97
2017-03-16T04:25:22.902Z,963.97
2017-03-16T04:26:29.765Z,963.94
2017-03-16T04:27:48.183Z,963.97
2017-03-16T04:28:27.941Z,963.95
2017-03-16T04:29:15.149Z,963.94
2017-03-16T04:30:25.807Z,963.96
2017-03-16T04:31:21.512Z,963.92
2017-03-16T04:32:27.135Z,963.95
2017-03-16T04:33:43.749Z,963.99
2017-03-16T04:34:33.406Z,964.03
2017-03-16T04:35:29.644Z,963.99
2017-03-16T04:36:30.395Z,963.96
2017-03-16T04:37:27.266Z,964.02
2017-03-16T04:38:27.618Z,964.01
2017-03-16T04:39:41.540Z,963.98
2017-03-16T04:40:27.213Z,964.00
2017-03-16T04:41:35.752Z,963.94
2017-03-16T04:42:32.978Z,963.92
2017-03-16T04:43:32.633Z,963.94
2017-03-16T04:44:37.556Z,963.89
2017-03-16T04:45:28.438Z,963.92
2017-03-16T04:46:31.115Z,963.90
2017-03-16T04:47:26.237Z,963.91
2017-03-16T04:48:26.694Z,963.95
2017-03-16T04:49:33.932Z,963.95
2017-03-16T04:50:26.813Z,963.99
2017-03-16T04:51:22.683Z,964.00
2017-03-16T04:52:26.080Z,964.01
2017-03-16T04:53:27.034Z,964.03
2017-03-16T04:54:32.431Z,964.03
2017-03-16T04:55:22.743Z,964.06
2017-03-16T04:56:39.718Z,964.03
2017-03-16T04:57:32.954Z,964.04
2017-03-16T04:58:25.367Z,964.01
2017-03-16T04:59:20.079Z,963.99
2017-03-16T05:00:32.870Z,963.97
2017-03-16T05:01:48.460Z,963.92
2017-03-16T05:02:28.897Z,963.92
2017-03-16T05:03:35.137Z,963.89
2017-03-16T05:04:34.173Z,963.90
2017-03-16T05:05:32.401Z,963.90
2017-03-16T05:06:27.092Z,963.92
2017-03-16T05:07:34.140Z,963.85
2017-03-16T05:08:23.730Z,963.85
2017-03-16T05:09:34.488Z,963.84
2017-03-16T05:10:26.496Z,963.83
2017-03-16T05:11:37.339Z,963.84
2017-03-16T05:12:27.059Z,963.85
2017-03-16T05:13:27.559Z,963.81
2017-03-16T05:14:28.320Z,963.83
2017-03-16T05:15:37.706Z,963.85
2017-03-16T05:16:32.317Z,963.81
2017-03-16T05:17:29.940Z,963.83
2017-03-16T05:18:30.098Z,963.85
2017-03-16T05:19:31.697Z,963.88
2017-03-16T05:20:37.435Z,963.81
2017-03-16T05:21:29.866Z,963.86
2017-03-16T05:22:31.410Z,963.84
2017-03-16T05:23:32.340Z,963.85
2017-03-16T05:24:33.568Z,963.84
2017-03-16T05:25:36.508Z,963.83
2017-03-16T05:26:26.860Z,963.87
2017-03-16T05:27:24.073Z,963.87
2017-03-16T05:28:30.503Z,963.85
2017-03-16T05:29:38.155Z,963.80
2017-03-16T05:30:25.525Z,963.83
2017-03-16T05:32:34.226Z,963.85
2017-03-16T05:33:48.463Z,963.86
2017-03-16T05:34:46.858Z,963.87
2017-03-16T05:35:46.359Z,963.88
2017-03-16T05:36:39.418Z,963.91
2017-03-16T05:37:32.826Z,963.88
2017-03-16T05:38:37.466Z,963.92
2017-03-16T05:39:33.235Z,963.90
2017-03-16T05:40:38.057Z,963.91
2017-03-16T05:41:34.602Z,963.87
2017-03-16T05:42:31.767Z,963.91
2017-03-16T05:43:22.450Z,963.86
2017-03-16T05:44:31.109Z,963.88
2017-03-16T05:45:31.831Z,963.92
2017-03-16T05:46:26.186Z,963.88
2017-03-16T05:47:32.886Z,963.87
2017-03-16T05:48:41.623Z,963.89
2017-03-16T05:49:38.056Z,963.88
2017-03-16T05:50:35.607Z,963.85
2017-03-16T05:51:42.314Z,963.87
2017-03-16T05:52:30.579Z,963.90
2017-03-16T05:53:51.551Z,963.86
2017-03-16T05:54:37.906Z,963.88
2017-03-16T05:55:33.901Z,963.84
2017-03-16T05:56:27.110Z,963.82
2017-03-16T05:57:42.318Z,963.82
2017-03-16T05:58:45.567Z,963.79
2017-03-16T05:59:39.449Z,963.79
2017-03-16T06:00:44.070Z,963.74
2017-03-16T06:01:33.055Z,963.71
2017-03-16T06:02:37.681Z,963.68
2017-03-16T06:03:41.132Z,963.67
2017-03-16T06:04:31.961Z,963.68
2017-03-16T06:05:26.569Z,963.65
2017-03-16T06:06:37.314Z,963.62
2017-03-16T06:07:32.791Z,963.69
2017-03-16T06:08:38.347Z,963.66
2017-03-16T06:09:38.187Z,963.59
2017-03-16T06:10:33.184Z,963.61
2017-03-16T06:11:44.934Z,963.58
2017-03-16T06:12:22.008Z,963.57
2017-03-16T06:13:36.903Z,963.56
2017-03-16T06:14:36.307Z,963.52
2017-03-16T06:15:30.202Z,963.50
2017-03-16T06:16:36.858Z,963.49
2017-03-16T06:17:23.209Z,963.44
2017-03-16T06:18:42.062Z,963.47
2017-03-16T06:19:27.695Z,963.46
2017-03-16T06:20:26.624Z,963.47
2017-03-16T06:21:39.533Z,963.49
2017-03-16T06:22:36.833Z,963.54
2017-03-16T06:23:27.839Z,963.58
2017-03-16T06:24:29.073Z,963.64
2017-03-16T06:25:36.786Z,963.67
2017-03-16T06:26:32.562Z,963.68
2017-03-16T06:27:31.872Z,963.75
2017-03-16T06:28:31.803Z,963.81
2017-03-16T06:29:24.015Z,963.89
2017-03-16T06:30:34.117Z,963.94
2017-03-16T06:31:32.799Z,963.92
2017-03-16T06:32:32.423Z,963.89
2017-03-16T06:33:22.408Z,963.92
2017-03-16T06:37:10.905Z,963.90
2017-03-16T06:37:43.701Z,963.92
2017-03-16T06:38:30.844Z,963.92
2017-03-16T06:39:31.980Z,963.88
2017-03-16T06:40:36.010Z,963.90
2017-03-16T06:41:37.151Z,963.94
2017-03-16T06:42:32.720Z,963.92
2017-03-16T06:43:28.159Z,963.96
2017-03-16T06:44:33.955Z,963.90
2017-03-16T06:45:32.802Z,963.93
2017-03-16T06:46:28.769Z,963.99
2017-03-16T06:47:37.872Z,963.96
2017-03-16T06:48:20.985Z,963.96
2017-03-16T06:49:32.423Z,963.92
2017-03-16T06:50:44.304Z,963.90
2017-03-16T06:51:39.271Z,963.91
2017-03-16T06:52:44.329Z,963.89
2017-03-16T06:53:55.154Z,963.89
2017-03-16T06:54:47.171Z,963.90
2017-03-16T06:55:51.199Z,963.89
2017-03-16T06:56:45.039Z,963.86
2017-03-16T06:57:45.339Z,963.86
2017-03-16T06:58:44.742Z,963.86
2017-03-16T06:59:53.496Z,963.85
2017-03-16T07:00:45.546Z,963.82
2017-03-16T07:01:47.174Z,963.86
2017-03-16T07:02:43.256Z,963.88
2017-03-16T07:03:44.966Z,963.88
2017-03-16T07:04:48.913Z,963.89
2017-03-16T07:05:44.592Z,963.88
2017-03-16T07:06:46.126Z,963.91
2017-03-16T07:07:39.393Z,963.94
2017-03-16T07:08:43.802Z,963.95
2017-03-16T07:09:40.795Z,963.93
2017-03-16T07:10:42.702Z,963.95
2017-03-16T07:11:44.322Z,963.91
2017-03-16T07:12:37.458Z,963.89
2017-03-16T07:13:38.819Z,963.89
2017-03-16T07:14:58.205Z,963.88
2017-03-16T07:15:55.294Z,963.87
2017-03-16T07:16:45.756Z,963.85
2017-03-16T07:17:48.942Z,963.87
2017-03-16T07:18:38.625Z,963.98
2017-03-16T07:19:50.990Z,963.92
2017-03-16T07:20:40.594Z,963.99
2017-03-16T07:21:56.727Z,963.98
2017-03-16T07:22:49.362Z,964.00
2017-03-16T07:23:44.441Z,963.97
2017-03-16T07:24:44.592Z,963.99
2017-03-16T07:25:48.602Z,963.98
2017-03-16T07:26:59.262Z,964.00
2017-03-16T07:27:47.918Z,964.02
2017-03-16T07:28:45.807Z,964.01
2017-03-16T07:29:54.311Z,964.00
2017-03-16T07:30:49.237Z,964.02
2017-03-16T07:31:44.607Z,963.97
2017-03-16T07:32:44.775Z,964.00
2017-03-16T07:33:43.556Z,963.98
2017-03-16T07:34:51.621Z,963.93
2017-03-16T07:35:44.317Z,963.98
2017-03-16T07:36:44.122Z,963.99
2017-03-16T07:37:43.377Z,963.99
2017-03-16T07:38:56.697Z,963.97
2017-03-16T07:39:57.055Z,963.96
2017-03-16T07:41:01.554Z,963.95
2017-03-16T07:42:00.986Z,963.96
2017-03-16T07:42:55.519Z,963.95
2017-03-16T07:43:44.415Z,963.96
2017-03-16T07:44:54.590Z,963.90
2017-03-16T07:45:43.871Z,963.90
2017-03-16T07:47:01.085Z,963.93
2017-03-16T07:48:00.515Z,963.88
2017-03-16T07:48:43.831Z,963.90
2017-03-16T07:49:50.160Z,963.88
2017-03-16T07:50:55.928Z,963.91
2017-03-16T07:51:46.460Z,963.98
2017-03-16T07:52:50.800Z,963.97
2017-03-16T07:53:43.012Z,963.95
2017-03-16T07:54:44.447Z,963.95
2017-03-16T07:55:49.423Z,963.90
2017-03-16T07:56:46.463Z,963.97
2017-03-16T07:57:38.084Z,963.90
2017-03-16T07:58:43.348Z,963.92
2017-03-16T07:59:38.348Z,963.92
2017-03-16T08:00:40.017Z,963.93
2017-03-16T08:01:41.162Z,963.91
2017-03-16T08:02:56.793Z,963.92
2017-03-16T08:03:50.176Z,963.93
2017-03-16T08:04:58.067Z,963.95
2017-03-16T08:05:51.956Z,963.96
2017-03-16T08:06:44.325Z,963.96
2017-03-16T08:07:51.160Z,963.96
2017-03-16T08:08:44.526Z,963.98
2017-03-16T08:09:49.140Z,963.97
2017-03-16T08:10:44.944Z,963.96
2017-03-16T08:11:49.980Z,963.96
2017-03-16T08:12:45.162Z,963.93
2017-03-16T08:13:50.143Z,963.88
2017-03-16T08:14:53.641Z,963.84
2017-03-16T08:15:47.219Z,963.81
2017-03-16T08:16:38.450Z,963.78
2017-03-16T08:17:49.962Z,963.75
2017-03-16T08:18:44.478Z,963.75
2017-03-16T08:19:42.976Z,963.76
2017-03-16T08:20:47.457Z,963.77
2017-03-16T08:21:44.486Z,963.77
2017-03-16T08:22:51.621Z,963.77
2017-03-16T08:23:44.788Z,963.78
2017-03-16T08:24:55.670Z,963.76
2017-03-16T08:25:54.825Z,963.75
2017-03-16T08:26:49.368Z,963.80
2017-03-16T08:27:50.489Z,963.74
2017-03-16T08:28:56.253Z,963.75
2017-03-16T08:30:10.465Z,963.74
2017-03-16T08:30:49.489Z,963.75
2017-03-16T08:31:49.128Z,963.71
2017-03-16T08:32:46.127Z,963.71
2017-03-16T08:33:48.613Z,963.72
2017-03-16T08:34:45.076Z,963.72
2017-03-16T08:35:49.124Z,963.66
2017-03-16T08:36:40.548Z,963.70
2017-03-16T08:38:03.175Z,963.69
2017-03-16T08:39:33.012Z,963.62
2017-03-16T08:39:54.320Z,963.67
2017-03-16T08:41:02.827Z,963.66
2017-03-16T08:41:46.201Z,963.62
2017-03-16T08:42:37.962Z,963.62
2017-03-16T08:43:49.549Z,963.60
2017-03-16T08:44:54.840Z,963.60
2017-03-16T08:45:44.900Z,963.56
2017-03-16T08:46:45.001Z,963.57
2017-03-16T08:47:51.459Z,963.59
2017-03-16T08:48:41.099Z,963.59
2017-03-16T08:49:44.885Z,963.56
2017-03-16T08:50:51.019Z,963.57
2017-03-16T08:51:51.965Z,963.55
2017-03-16T08:52:49.843Z,963.58
2017-03-16T08:53:48.550Z,963.57
2017-03-16T08:54:41.965Z,963.61
2017-03-16T08:55:38.430Z,963.55
2017-03-16T08:56:44.256Z,963.52
2017-03-16T08:57:51.771Z,963.54
2017-03-16T08:58:51.906Z,963.53
2017-03-16T08:59:47.258Z,963.50
2017-03-16T09:00:57.146Z,963.46
2017-03-16T09:01:51.432Z,963.45
2017-03-16T09:02:48.650Z,963.46
2017-03-16T09:03:44.011Z,963.46
2017-03-16T09:04:52.998Z,963.46
2017-03-16T09:05:44.698Z,963.48
2017-03-16T09:06:47.324Z,963.52
2017-03-16T09:07:44.850Z,963.47
2017-03-16T09:08:45.515Z,963.51
2017-03-16T09:09:54.580Z,963.51
2017-03-16T09:10:43.154Z,963.51
2017-03-16T09:11:43.124Z,963.50
2017-03-16T09:12:49.476Z,963.47
2017-03-16T09:13:40.003Z,963.51
2017-03-16T09:14:49.478Z,963.44
2017-03-16T09:15:50.692Z,963.44
2017-03-16T09:16:43.335Z,963.41
2017-03-16T09:17:44.965Z,963.42
2017-03-16T09:18:45.224Z,963.39
2017-03-16T09:19:46.488Z,963.44
2017-03-16T09:20:45.274Z,963.45
2017-03-16T09:21:48.868Z,963.41
2017-03-16T09:22:43.703Z,963.39
2017-03-16T09:23:54.436Z,963.39
2017-03-16T09:24:23.145Z,963.40
2017-03-16T09:25:45.626Z,963.39
2017-03-16T09:26:54.872Z,963.34
2017-03-16T09:27:54.543Z,963.34
2017-03-16T09:28:50.059Z,963.33
2017-03-16T09:29:38.881Z,963.32
2017-03-16T09:30:40.588Z,963.28
2017-03-16T09:31:49.609Z,963.29
2017-03-16T09:32:50.680Z,963.30
2017-03-16T09:33:52.852Z,963.28
2017-03-16T09:34:47.071Z,963.27
2017-03-16T09:35:40.361Z,963.27
2017-03-16T09:36:49.527Z,963.28
2017-03-16T09:37:47.444Z,963.26
2017-03-16T09:38:45.028Z,963.23
2017-03-16T09:39:44.994Z,963.25
2017-03-16T09:40:42.812Z,963.23
2017-03-16T09:41:44.323Z,963.22
2017-03-16T09:42:56.619Z,963.18
2017-03-16T09:43:49.402Z,963.18
2017-03-16T09:45:07.201Z,963.14
2017-03-16T09:45:44.681Z,963.11
2017-03-16T09:47:06.158Z,963.13
2017-03-16T09:47:50.377Z,963.12
2017-03-16T09:48:49.577Z,963.06
2017-03-16T09:49:46.998Z,963.06
2017-03-16T09:50:45.010Z,963.08
2017-03-16T09:51:53.315Z,963.02
2017-03-16T09:52:33.770Z,963.02
2017-03-16T09:53:44.387Z,963.04
2017-03-16T09:54:50.025Z,963.02
2017-03-16T09:55:45.554Z,963.03
2017-03-16T09:56:45.738Z,963.03
2017-03-16T09:57:45.030Z,963.01
2017-03-16T09:58:57.016Z,963.00
2017-03-16T09:59:49.467Z,962.96
2017-03-16T10:00:42.072Z,962.95
2017-03-16T10:01:54.532Z,962.92
2017-03-16T10:02:53.211Z,962.91
2017-03-16T10:03:50.438Z,962.89
2017-03-16T10:04:54.884Z,962.90
2017-03-16T10:05:47.636Z,962.90
2017-03-16T10:06:49.775Z,962.86
2017-03-16T10:07:41.073Z,962.86
2017-03-16T10:08:56.821Z,962.83
2017-03-16T10:09:45.651Z,962.85
2017-03-16T10:10:49.657Z,962.88
2017-03-16T10:11:45.329Z,962.84
2017-03-16T10:12:49.432Z,962.88
2017-03-16T10:13:48.332Z,962.90
2017-03-16T10:14:43.426Z,962.88
2017-03-16T10:15:45.493Z,962.89
2017-03-16T10:16:51.554Z,962.91
2017-03-16T10:17:57.481Z,962.86
2017-03-16T10:18:46.822Z,962.85
2017-03-16T10:19:47.247Z,962.81
2017-03-16T10:20:40.133Z,962.88
2017-03-16T10:21:39.141Z,962.85
2017-03-16T10:22:54.589Z,962.84
2017-03-16T10:23:51.006Z,962.77
2017-03-16T10:24:59.673Z,962.80
2017-03-16T10:25:44.108Z,962.80
2017-03-16T10:26:44.935Z,962.73
2017-03-16T10:27:45.202Z,962.83
2017-03-16T10:28:43.998Z,962.76
2017-03-16T10:29:51.159Z,962.77
2017-03-16T10:30:48.003Z,962.79
2017-03-16T10:31:50.093Z,962.78
2017-03-16T10:32:49.990Z,962.77
2017-03-16T10:33:45.840Z,962.75
2017-03-16T10:34:59.250Z,962.79
2017-03-16T10:35:48.677Z,962.75
2017-03-16T10:36:38.568Z,962.78
2017-03-16T10:37:43.786Z,962.78
2017-03-16T10:38:53.404Z,962.73
2017-03-16T10:39:54.262Z,962.73
2017-03-16T10:40:43.533Z,962.71
2017-03-16T10:41:51.837Z,962.71
2017-03-16T10:42:45.494Z,962.69
2017-03-16T10:43:51.352Z,962.64
2017-03-16T10:44:45.026Z,962.68
2017-03-16T10:45:52.696Z,962.61
2017-03-16T10:46:37.687Z,962.62
2017-03-16T10:47:45.513Z,962.60
2017-03-16T10:48:38.462Z,962.55
2017-03-16T10:49:48.341Z,962.52
2017-03-16T10:50:40.128Z,962.52
2017-03-16T10:51:42.971Z,962.50
2017-03-16T10:52:46.370Z,962.49
2017-03-16T10:53:45.782Z,962.52
2017-03-16T10:55:02.807Z,962.49
2017-03-16T10:55:46.518Z,962.46
2017-03-16T10:56:49.651Z,962.48
2017-03-16T10:57:52.850Z,962.46
2017-03-16T10:58:57.223Z,962.43
2017-03-16T11:00:01.529Z,962.37
2017-03-16T11:00:46.322Z,962.41
2017-03-16T11:01:47.057Z,962.39
2017-03-16T11:02:42.806Z,962.35
2017-03-16T11:03:48.851Z,962.39
2017-03-16T11:05:00.158Z,962.34
2017-03-16T11:06:16.452Z,962.32
2017-03-16T11:06:49.164Z,962.36
2017-03-16T11:07:54.921Z,962.37
2017-03-16T11:08:53.454Z,962.32
2017-03-16T11:09:38.076Z,962.33
2017-03-16T11:10:44.217Z,962.34
2017-03-16T11:11:48.942Z,962.31
2017-03-16T11:12:44.463Z,962.28
2017-03-16T11:13:49.096Z,962.26
2017-03-16T11:14:55.664Z,962.25
2017-03-16T11:15:49.921Z,962.26
2017-03-16T11:16:44.718Z,962.25
2017-03-16T11:17:56.011Z,962.24
2017-03-16T11:18:45.006Z,962.24
2017-03-16T11:19:55.442Z,962.26
2017-03-16T11:20:50.869Z,962.24
2017-03-16T11:21:58.934Z,962.22
2017-03-16T11:23:03.085Z,962.20
2017-03-16T11:23:45.761Z,962.20
2017-03-16T11:24:45.539Z,962.20
2017-03-16T11:25:50.143Z,962.19
2017-03-16T11:26:41.240Z,962.17
2017-03-16T11:27:44.769Z,962.12
2017-03-16T11:28:52.246Z,962.09
2017-03-16T11:30:04.440Z,962.14
2017-03-16T11:30:47.332Z,962.17
2017-03-16T11:31:43.463Z,962.10
2017-03-16T11:32:38.678Z,962.11
2017-03-16T11:33:46.142Z,962.16
2017-03-16T11:34:43.986Z,962.09
2017-03-16T11:35:55.071Z,962.08
2017-03-16T11:36:48.832Z,962.08
2017-03-16T11:37:49.175Z,962.13
2017-03-16T11:38:44.491Z,962.08
2017-03-16T11:39:49.029Z,962.06
2017-03-16T11:40:45.089Z,962.02
2017-03-16T11:41:41.072Z,962.01
2017-03-16T11:42:40.799Z,962.00
2017-03-16T11:44:43.813Z,961.98
2017-03-16T11:45:33.388Z,961.95
2017-03-16T11:46:45.209Z,961.95
2017-03-16T11:47:44.922Z,961.91
2017-03-16T11:48:46.646Z,961.94
2017-03-16T11:49:50.561Z,961.94
2017-03-16T11:50:40.421Z,961.96
2017-03-16T11:51:51.412Z,961.94
2017-03-16T11:52:49.696Z,961.91
2017-03-16T11:53:45.170Z,961.88
2017-03-16T11:54:37.161Z,961.90
2017-03-16T11:55:38.216Z,961.86
2017-03-16T11:56:42.711Z,961.88
2017-03-16T11:57:44.387Z,961.85
2017-03-16T11:58:44.332Z,961.82
2017-03-16T11:59:54.231Z,961.80
2017-03-16T12:00:43.351Z,961.78
2017-03-16T12:01:44.768Z,961.77
2017-03-16T12:02:45.462Z,961.80
2017-03-16T12:03:25.176Z,961.81
2017-03-16T12:04:44.291Z,961.74
2017-03-16T12:05:50.214Z,961.76
2017-03-16T12:06:43.425Z,961.70
2017-03-16T12:07:45.311Z,961.73
2017-03-16T12:08:20.558Z,961.71
2017-03-16T12:09:43.490Z,961.68
2017-03-16T12:10:39.685Z,961.63
2017-03-16T12:12:07.713Z,961.70
2017-03-16T12:13:06.357Z,961.67
2017-03-16T12:13:43.981Z,961.66
2017-03-16T12:14:40.451Z,961.65
2017-03-16T12:15:52.512Z,961.62
2017-03-16T12:16:49.176Z,961.63
2017-03-16T12:17:34.750Z,961.62
2017-03-16T12:18:56.283Z,961.62
2017-03-16T12:20:03.011Z,961.62
2017-03-16T12:20:48.926Z,961.57
2017-03-16T12:21:45.841Z,961.60
2017-03-16T12:22:50.237Z,961.57
2017-03-16T12:23:49.573Z,961.57
2017-03-16T12:24:52.749Z,961.58
2017-03-16T12:25:40.008Z,961.56
2017-03-16T12:26:55.495Z,961.56
2017-03-16T12:27:44.312Z,961.54
2017-03-16T12:28:38.372Z,961.51
2017-03-16T12:29:44.321Z,961.52
2017-03-16T12:30:40.349Z,961.51
2017-03-16T12:31:44.985Z,961.50
2017-03-16T12:32:50.225Z,961.56